createdAt,value
2023-11-30T00:00:17.450Z,97103.13
2023-11-30T00:02:44.082Z,97096.78
2023-11-30T00:05:11.044Z,97111.09
2023-11-30T00:07:37.663Z,97106.28
2023-11-30T00:10:04.948Z,97112.56
2023-11-30T00:12:31.947Z,97116.06
2023-11-30T00:14:58.782Z,97112.09
2023-11-30T00:17:25.429Z,97114.09
2023-11-30T00:19:52.056Z,97111.00
2023-11-30T00:22:18.673Z,97107.84
2023-11-30T00:24:45.259Z,97101.91
2023-11-30T00:27:11.918Z,97117.41
2023-11-30T00:29:38.917Z,97116.25
2023-11-30T00:32:06.223Z,97115.94
2023-11-30T00:34:32.727Z,97125.13
2023-11-30T00:36:59.355Z,97128.25
2023-11-30T00:39:25.997Z,97127.84
2023-11-30T00:41:52.759Z,97137.31
2023-11-30T00:44:22.308Z,97127.78
2023-11-30T00:46:49.241Z,97133.78
2023-11-30T00:49:15.880Z,97145.19
2023-11-30T00:51:42.492Z,97153.91
2023-11-30T00:54:09.239Z,97163.47
2023-11-30T00:56:35.865Z,97155.88
2023-11-30T00:59:02.510Z,97166.13
2023-11-30T01:01:29.150Z,97170.97
2023-11-30T01:03:55.802Z,97163.47
2023-11-30T01:06:22.471Z,97169.81
2023-11-30T01:08:49.267Z,97168.19
2023-11-30T01:11:15.904Z,97157.06
2023-11-30T01:13:42.509Z,97156.78
2023-11-30T01:16:09.405Z,97161.88
2023-11-30T01:18:36.099Z,97158.75
2023-11-30T01:21:04.022Z,97160.19
2023-11-30T01:23:30.683Z,97167.22
2023-11-30T01:25:57.283Z,97154.47
2023-11-30T01:28:23.878Z,97158.88
2023-11-30T01:30:50.444Z,97153.38
2023-11-30T01:33:17.226Z,97161.47
2023-11-30T01:35:44.786Z,97165.50
2023-11-30T01:38:11.352Z,97167.38
2023-11-30T01:40:38.016Z,97163.00
2023-11-30T01:43:07.562Z,97157.69
2023-11-30T01:45:34.703Z,97157.19
2023-11-30T01:48:02.057Z,97156.72
2023-11-30T01:50:28.800Z,97149.59
2023-11-30T01:52:55.535Z,97143.63
2023-11-30T01:55:22.532Z,97165.41
2023-11-30T01:57:49.224Z,97151.16
2023-11-30T02:00:16.853Z,97155.16
2023-11-30T02:02:44.398Z,97152.06
2023-11-30T02:05:11.630Z,97157.63
2023-11-30T02:07:38.397Z,97171.09
2023-11-30T02:10:05.251Z,97168.00
2023-11-30T02:12:31.998Z,97167.94
2023-11-30T02:15:00.591Z,97164.88
2023-11-30T02:17:27.331Z,97174.22
2023-11-30T02:19:53.944Z,97180.56
2023-11-30T02:22:20.542Z,97186.47
2023-11-30T02:24:47.191Z,97189.63
2023-11-30T02:27:13.930Z,97183.69
2023-11-30T02:29:40.556Z,97191.50
2023-11-30T02:32:07.411Z,97188.28
2023-11-30T02:34:34.211Z,97188.16
2023-11-30T02:37:00.807Z,97187.78
2023-11-30T02:39:27.837Z,97187.69
2023-11-30T02:41:54.578Z,97192.41
2023-11-30T02:44:21.229Z,97201.41
2023-11-30T02:46:47.912Z,97203.75
2023-11-30T02:49:14.534Z,97211.38
2023-11-30T02:51:41.131Z,97208.97
2023-11-30T02:54:07.890Z,97206.72
2023-11-30T02:56:42.174Z,97206.19
2023-11-30T02:59:08.874Z,97206.91
2023-11-30T03:01:42.534Z,97196.81
2023-11-30T03:04:09.173Z,97209.41
2023-11-30T03:06:35.781Z,97217.81
2023-11-30T03:09:02.555Z,97209.03
2023-11-30T03:11:29.115Z,97202.13
2023-11-30T03:13:55.724Z,97203.28
2023-11-30T03:16:26.112Z,97203.28
2023-11-30T03:19:05.827Z,97209.66
2023-11-30T03:21:39.316Z,97208.06
2023-11-30T03:24:08.920Z,97217.31
2023-11-30T03:26:35.705Z,97206.53
2023-11-30T03:29:02.386Z,97225.19
2023-11-30T03:31:29.029Z,97209.69
2023-11-30T03:33:55.656Z,97215.25
2023-11-30T03:36:22.510Z,97214.53
2023-11-30T03:38:54.710Z,97211.28
2023-11-30T03:41:22.058Z,97219.94
2023-11-30T03:43:49.211Z,97235.06
2023-11-30T03:46:16.281Z,97245.09
2023-11-30T03:48:42.933Z,97254.22
2023-11-30T03:51:10.807Z,97257.00
2023-11-30T03:53:37.698Z,97268.03
2023-11-30T03:56:04.649Z,97273.16
2023-11-30T03:58:31.367Z,97272.69
2023-11-30T04:00:58.068Z,97269.97
2023-11-30T04:03:24.812Z,97278.19
2023-11-30T04:05:51.498Z,97267.59
2023-11-30T04:08:18.977Z,97281.84
2023-11-30T04:10:46.044Z,97282.75
2023-11-30T04:13:12.777Z,97288.38
2023-11-30T04:15:39.586Z,97283.56
2023-11-30T04:18:06.699Z,97273.28
2023-11-30T04:20:33.503Z,97271.69
2023-11-30T04:23:00.121Z,97271.78
2023-11-30T04:25:26.744Z,97272.59
2023-11-30T04:27:53.612Z,97278.97
2023-11-30T04:30:20.294Z,97282.16
2023-11-30T04:32:46.963Z,97287.25
2023-11-30T04:35:13.675Z,97279.75
2023-11-30T04:37:40.303Z,97265.41
2023-11-30T04:40:07.699Z,97258.81
2023-11-30T04:42:34.335Z,97251.38
2023-11-30T04:45:01.042Z,97246.75
2023-11-30T04:47:27.776Z,97236.19
2023-11-30T04:49:54.465Z,97245.97
2023-11-30T04:52:21.096Z,97231.56
2023-11-30T04:54:47.678Z,97234.34
2023-11-30T04:57:15.573Z,97235.56
2023-11-30T04:59:42.386Z,97226.50
2023-11-30T05:02:09.414Z,97230.09
2023-11-30T05:04:36.314Z,97242.84
2023-11-30T05:07:03.392Z,97249.19
2023-11-30T05:09:30.071Z,97248.41
2023-11-30T05:11:56.757Z,97236.59
2023-11-30T05:14:23.422Z,97250.88
2023-11-30T05:16:50.097Z,97259.38
2023-11-30T05:19:16.704Z,97239.53
2023-11-30T05:21:43.359Z,97245.66
2023-11-30T05:24:10.298Z,97254.44
2023-11-30T05:26:36.926Z,97291.69
2023-11-30T05:29:04.003Z,97300.03
2023-11-30T05:31:30.710Z,97284.69
2023-11-30T05:33:57.286Z,97288.53
2023-11-30T05:36:23.905Z,97286.16
2023-11-30T05:38:51.588Z,97282.34
2023-11-30T05:41:18.427Z,97273.03
2023-11-30T05:43:45.059Z,97299.25
2023-11-30T05:46:11.728Z,97302.47
2023-11-30T05:48:38.404Z,97322.22
2023-11-30T05:51:05.187Z,97321.13
2023-11-30T05:53:31.892Z,97308.91
2023-11-30T05:55:58.599Z,97303.31
2023-11-30T05:58:25.204Z,97301.72
2023-11-30T06:00:51.829Z,97296.47
2023-11-30T06:03:18.616Z,97288.91
2023-11-30T06:05:45.318Z,97306.56
2023-11-30T06:08:12.110Z,97305.81
2023-11-30T06:10:39.143Z,97308.34
2023-11-30T06:13:08.199Z,97300.53
2023-11-30T06:15:35.007Z,97301.94
2023-11-30T06:18:01.751Z,97307.44
2023-11-30T06:20:28.558Z,97318.34
2023-11-30T06:22:55.350Z,97313.66
2023-11-30T06:25:21.987Z,97320.84
2023-11-30T06:27:48.825Z,97324.78
2023-11-30T06:30:15.626Z,97328.66
2023-11-30T06:32:42.292Z,97330.13
2023-11-30T06:35:09.508Z,97331.66
2023-11-30T06:37:36.198Z,97343.94
2023-11-30T06:40:02.769Z,97335.59
2023-11-30T06:42:30.007Z,97330.06
2023-11-30T06:44:56.615Z,97345.94
2023-11-30T06:47:23.236Z,97355.53
2023-11-30T06:49:49.967Z,97360.31
2023-11-30T06:52:17.177Z,97365.66
2023-11-30T06:54:43.826Z,97362.72
2023-11-30T06:57:11.332Z,97365.00
2023-11-30T06:59:38.092Z,97368.50
2023-11-30T07:02:04.890Z,97381.09
2023-11-30T07:04:31.568Z,97387.03
2023-11-30T07:06:58.316Z,97379.41
2023-11-30T07:09:24.975Z,97395.19
2023-11-30T07:11:51.565Z,97397.59
2023-11-30T07:14:18.191Z,97407.50
2023-11-30T07:16:44.918Z,97415.06
2023-11-30T07:19:11.549Z,97400.78
2023-11-30T07:21:38.547Z,97390.19
2023-11-30T07:24:05.732Z,97386.97
2023-11-30T07:26:32.353Z,97394.50
2023-11-30T07:28:59.384Z,97380.75
2023-11-30T07:31:25.973Z,97378.69
2023-11-30T07:33:52.730Z,97387.34
2023-11-30T07:36:19.607Z,97418.59
2023-11-30T07:38:46.192Z,97421.03
2023-11-30T07:41:13.777Z,97410.53
2023-11-30T07:43:40.515Z,97405.69
2023-11-30T07:46:07.525Z,97396.63
2023-11-30T07:48:34.271Z,97402.41
2023-11-30T07:51:00.999Z,97412.00
2023-11-30T07:53:27.645Z,97407.34
2023-11-30T07:55:58.037Z,97405.00
2023-11-30T07:58:25.084Z,97413.91
2023-11-30T08:00:52.592Z,97422.44
2023-11-30T08:03:19.786Z,97403.66
2023-11-30T08:05:46.752Z,97393.00
2023-11-30T08:08:13.809Z,97393.31
2023-11-30T08:10:41.008Z,97402.03
2023-11-30T08:13:07.802Z,97404.72
2023-11-30T08:15:34.640Z,97391.00
2023-11-30T08:18:02.152Z,97390.56
2023-11-30T08:20:28.921Z,97378.53
2023-11-30T08:22:56.539Z,97381.94
2023-11-30T08:25:23.194Z,97388.00
2023-11-30T08:27:54.138Z,97379.81
2023-11-30T08:30:22.195Z,97379.50
2023-11-30T08:32:49.181Z,97378.78
2023-11-30T08:35:15.980Z,97384.19
2023-11-30T08:37:42.591Z,97386.56
2023-11-30T08:40:11.831Z,97387.28
2023-11-30T08:42:38.725Z,97386.38
2023-11-30T08:45:06.812Z,97377.66
2023-11-30T08:47:33.568Z,97388.63
2023-11-30T08:50:00.279Z,97382.28
2023-11-30T08:52:26.955Z,97391.72
2023-11-30T08:54:54.238Z,97384.47
2023-11-30T08:57:20.963Z,97383.34
2023-11-30T08:59:47.657Z,97376.72
2023-11-30T09:02:14.769Z,97373.44
2023-11-30T09:04:41.870Z,97353.09
2023-11-30T09:07:08.693Z,97349.47
2023-11-30T09:09:35.354Z,97353.44
2023-11-30T09:12:03.488Z,97350.81
2023-11-30T09:14:33.377Z,97342.81
2023-11-30T09:17:02.741Z,97349.22
2023-11-30T09:19:29.372Z,97359.69
2023-11-30T09:21:55.966Z,97350.53
2023-11-30T09:24:23.412Z,97328.13
2023-11-30T09:26:54.606Z,97339.72
2023-11-30T09:29:21.289Z,97329.44
2023-11-30T09:31:48.495Z,97325.44
2023-11-30T09:34:15.474Z,97309.34
2023-11-30T09:36:42.319Z,97329.44
2023-11-30T09:39:09.353Z,97323.00
2023-11-30T09:41:40.042Z,97316.59
2023-11-30T09:44:07.730Z,97320.44
2023-11-30T09:46:34.434Z,97302.47
2023-11-30T09:49:01.941Z,97304.06
2023-11-30T09:51:30.163Z,97294.84
2023-11-30T09:53:58.792Z,97277.81
2023-11-30T09:56:29.775Z,97306.16
2023-11-30T09:58:56.912Z,97290.84
2023-11-30T10:01:23.912Z,97280.97
2023-11-30T10:03:51.077Z,97276.84
2023-11-30T10:06:17.995Z,97259.81
2023-11-30T10:08:45.067Z,97254.19
2023-11-30T10:11:13.358Z,97267.47
2023-11-30T10:13:40.085Z,97251.66
2023-11-30T10:16:07.648Z,97249.06
2023-11-30T10:18:35.723Z,97218.53
2023-11-30T10:21:03.283Z,97223.81
2023-11-30T10:23:31.222Z,97223.50
2023-11-30T10:25:58.919Z,97223.66
2023-11-30T10:28:26.121Z,97208.41
2023-11-30T10:30:56.942Z,97210.63
2023-11-30T10:33:25.166Z,97200.72
2023-11-30T10:35:53.846Z,97206.66
2023-11-30T10:38:25.480Z,97207.50
2023-11-30T10:40:56.789Z,97212.38
2023-11-30T10:43:25.540Z,97217.56
2023-11-30T10:45:59.498Z,97200.38
2023-11-30T10:48:28.134Z,97207.56
2023-11-30T10:50:55.660Z,97197.75
2023-11-30T10:53:28.282Z,97212.50
2023-11-30T10:55:56.164Z,97199.94
2023-11-30T10:58:26.676Z,97188.31
2023-11-30T11:00:57.306Z,97180.19
2023-11-30T11:03:25.021Z,97171.41
2023-11-30T11:05:52.863Z,97174.75
2023-11-30T11:08:19.646Z,97174.81
2023-11-30T11:10:48.798Z,97175.47
2023-11-30T11:13:35.817Z,97169.06
2023-11-30T11:16:08.162Z,97173.50
2023-11-30T11:18:36.969Z,97160.44
2023-11-30T11:21:03.883Z,97149.94
2023-11-30T11:23:35.502Z,97142.25
2023-11-30T11:26:04.183Z,97146.66
2023-11-30T11:28:32.462Z,97142.91
2023-11-30T11:31:00.166Z,97137.63
2023-11-30T11:33:29.269Z,97108.94
2023-11-30T11:35:55.988Z,97101.78
2023-11-30T11:38:22.962Z,97089.06
2023-11-30T11:40:49.791Z,97077.72
2023-11-30T11:43:16.479Z,97074.59
2023-11-30T11:45:43.445Z,97038.69
2023-11-30T11:48:12.010Z,97045.38
2023-11-30T11:50:39.484Z,97046.16
2023-11-30T11:53:06.110Z,97057.13
2023-11-30T11:55:32.951Z,97046.63
2023-11-30T11:57:59.837Z,97055.69
2023-11-30T12:00:27.360Z,97040.53
2023-11-30T12:03:06.544Z,97038.06
2023-11-30T12:05:33.212Z,97018.97
2023-11-30T12:08:01.595Z,97012.13
2023-11-30T12:10:42.326Z,97016.16
2023-11-30T12:13:11.816Z,97032.91
2023-11-30T12:15:38.617Z,97024.94
2023-11-30T12:18:06.146Z,97029.91
2023-11-30T12:20:32.658Z,97025.22
2023-11-30T12:22:59.428Z,97010.72
2023-11-30T12:25:26.103Z,97029.59
2023-11-30T12:27:53.307Z,97019.91
2023-11-30T12:30:20.186Z,97031.78
2023-11-30T12:32:47.365Z,97027.09
2023-11-30T12:35:14.080Z,97030.84
2023-11-30T12:37:40.763Z,97022.09
2023-11-30T12:40:10.362Z,97023.66
2023-11-30T12:42:37.717Z,97023.03
2023-11-30T12:45:05.671Z,97051.16
2023-11-30T12:47:33.081Z,97041.81
2023-11-30T12:49:59.777Z,97030.56
2023-11-30T12:52:28.189Z,97031.81
2023-11-30T12:54:55.048Z,97026.97
2023-11-30T12:57:21.940Z,97043.34
2023-11-30T12:59:50.076Z,97037.13
2023-11-30T13:02:17.836Z,97037.44
2023-11-30T13:04:44.725Z,97030.72
2023-11-30T13:07:11.724Z,97029.00
2023-11-30T13:09:38.381Z,97025.38
2023-11-30T13:12:05.641Z,97030.22
2023-11-30T13:14:32.503Z,97028.34
2023-11-30T13:16:59.342Z,97011.16
2023-11-30T13:19:26.491Z,97021.47
2023-11-30T13:21:53.613Z,97033.03
2023-11-30T13:24:21.212Z,97045.53
2023-11-30T13:26:49.180Z,97036.13
2023-11-30T13:29:16.223Z,97029.81
2023-11-30T13:31:43.117Z,97021.38
2023-11-30T13:34:09.886Z,97027.63
2023-11-30T13:36:36.529Z,97015.44
2023-11-30T13:39:05.802Z,97024.53
2023-11-30T13:41:32.492Z,97030.16
2023-11-30T13:43:59.620Z,97033.59
2023-11-30T13:46:26.651Z,97026.75
2023-11-30T13:48:53.691Z,97030.84
2023-11-30T13:51:20.859Z,97044.44
2023-11-30T13:53:48.077Z,97043.38
2023-11-30T13:56:16.527Z,97044.28
2023-11-30T13:58:43.415Z,97054.13
2023-11-30T14:01:13.388Z,97051.97
2023-11-30T14:03:41.279Z,97046.81
2023-11-30T14:06:08.618Z,97059.91
2023-11-30T14:08:36.896Z,97054.31
2023-11-30T14:11:05.196Z,97073.66
2023-11-30T14:13:31.820Z,97069.44
2023-11-30T14:15:59.366Z,97078.28
2023-11-30T14:18:26.271Z,97099.56
2023-11-30T14:20:52.918Z,97073.78
2023-11-30T14:23:19.957Z,97101.25
2023-11-30T14:25:46.726Z,97095.78
2023-11-30T14:28:14.356Z,97105.44
2023-11-30T14:30:41.850Z,97101.97
2023-11-30T14:33:11.655Z,97097.31
2023-11-30T14:35:39.894Z,97101.47
2023-11-30T14:38:06.615Z,97096.28
2023-11-30T14:40:33.284Z,97096.28
2023-11-30T14:43:00.129Z,97095.84
2023-11-30T14:45:27.990Z,97093.16
2023-11-30T14:47:54.800Z,97091.56
2023-11-30T14:50:21.725Z,97093.59
2023-11-30T14:52:48.430Z,97087.28
2023-11-30T14:55:15.448Z,97093.38
2023-11-30T14:57:43.133Z,97110.28
2023-11-30T15:00:13.345Z,97106.19
2023-11-30T15:02:42.483Z,97086.81
2023-11-30T15:05:11.650Z,97109.91
2023-11-30T15:07:39.021Z,97112.66
2023-11-30T15:10:05.886Z,97122.81
2023-11-30T15:12:32.621Z,97124.88
2023-11-30T15:14:59.482Z,97128.22
2023-11-30T15:17:26.687Z,97125.22
2023-11-30T15:19:54.532Z,97138.47
2023-11-30T15:22:21.736Z,97132.78
2023-11-30T15:24:48.409Z,97125.22
2023-11-30T15:27:15.160Z,97128.91
2023-11-30T15:29:41.856Z,97143.38
2023-11-30T15:32:08.549Z,97153.34
2023-11-30T15:34:35.488Z,97149.38
2023-11-30T15:37:04.107Z,97141.53
2023-11-30T15:39:31.870Z,97147.16
2023-11-30T15:41:58.500Z,97150.28
2023-11-30T15:44:25.114Z,97136.06
2023-11-30T15:46:51.732Z,97152.19
2023-11-30T15:49:18.468Z,97150.16
2023-11-30T15:51:47.411Z,97150.00
2023-11-30T15:54:14.236Z,97148.06
2023-11-30T15:56:41.226Z,97148.72
2023-11-30T15:59:07.797Z,97155.88
2023-11-30T16:01:34.521Z,97133.84
2023-11-30T16:04:01.391Z,97160.72
2023-11-30T16:06:28.362Z,97162.56
2023-11-30T16:08:55.290Z,97161.25
2023-11-30T16:11:22.030Z,97162.09
2023-11-30T16:13:48.918Z,97173.09
2023-11-30T16:16:15.695Z,97165.47
2023-11-30T16:18:42.807Z,97171.06
2023-11-30T16:21:20.708Z,97165.03
2023-11-30T16:23:48.059Z,97166.16
2023-11-30T16:26:21.959Z,97180.59
2023-11-30T16:28:49.969Z,97177.38
2023-11-30T16:31:16.763Z,97163.06
2023-11-30T16:33:43.554Z,97164.63
2023-11-30T16:36:10.896Z,97168.41
2023-11-30T16:38:37.757Z,97163.06
2023-11-30T16:41:04.782Z,97154.06
2023-11-30T16:43:32.540Z,97152.75
2023-11-30T16:45:59.437Z,97143.56
2023-11-30T16:48:26.328Z,97143.56
2023-11-30T16:50:52.939Z,97146.97
2023-11-30T16:53:19.580Z,97148.84
2023-11-30T16:55:46.804Z,97161.41
2023-11-30T16:58:13.449Z,97167.69
2023-11-30T17:00:40.545Z,97166.78
2023-11-30T17:03:07.329Z,97158.94
2023-11-30T17:05:34.123Z,97148.91
2023-11-30T17:08:00.725Z,97156.47
2023-11-30T17:10:27.331Z,97154.13
2023-11-30T17:12:55.459Z,97144.28
2023-11-30T17:15:22.306Z,97135.75
2023-11-30T17:17:50.518Z,97142.78
2023-11-30T17:20:17.280Z,97143.38
2023-11-30T17:22:46.898Z,97140.66
2023-11-30T17:25:13.595Z,97128.75
2023-11-30T17:27:40.202Z,97154.91
2023-11-30T17:30:07.434Z,97152.97
2023-11-30T17:32:34.484Z,97144.56
2023-11-30T17:35:01.347Z,97137.75
2023-11-30T17:37:28.015Z,97120.94
2023-11-30T17:39:54.675Z,97120.25
2023-11-30T17:42:22.361Z,97120.38
2023-11-30T17:44:49.085Z,97115.41
2023-11-30T17:47:18.596Z,97106.47
2023-11-30T17:49:45.193Z,97092.47
2023-11-30T17:52:12.891Z,97092.38
2023-11-30T17:54:39.604Z,97092.72
2023-11-30T17:57:06.293Z,97085.31
2023-11-30T17:59:32.979Z,97092.47
2023-11-30T18:01:59.847Z,97077.09
2023-11-30T18:04:26.488Z,97085.97
2023-11-30T18:06:53.145Z,97092.91
2023-11-30T18:09:19.946Z,97085.69
2023-11-30T18:11:46.665Z,97074.25
2023-11-30T18:14:13.236Z,97091.22
2023-11-30T18:16:39.927Z,97086.13
2023-11-30T18:19:06.593Z,97081.16
2023-11-30T18:21:34.643Z,97100.59
2023-11-30T18:24:01.540Z,97089.25
2023-11-30T18:26:28.175Z,97086.13
2023-11-30T18:28:56.166Z,97079.72
2023-11-30T18:31:24.057Z,97065.91
2023-11-30T18:33:51.495Z,97088.59
2023-11-30T18:36:18.157Z,97084.56
2023-11-30T18:38:50.598Z,97082.88
2023-11-30T18:41:19.769Z,97088.97
2023-11-30T18:43:46.439Z,97102.66
2023-11-30T18:46:16.320Z,97101.06
2023-11-30T18:48:43.069Z,97101.75
2023-11-30T18:51:10.914Z,97108.06
2023-11-30T18:53:37.541Z,97088.69
2023-11-30T18:56:05.543Z,97091.25
2023-11-30T18:58:32.351Z,97084.19
2023-11-30T19:00:58.975Z,97082.16
2023-11-30T19:03:25.702Z,97085.88
2023-11-30T19:05:52.693Z,97078.84
2023-11-30T19:08:19.365Z,97091.16
2023-11-30T19:10:46.104Z,97106.41
2023-11-30T19:13:12.853Z,97103.59
2023-11-30T19:15:42.421Z,97090.75
2023-11-30T19:18:09.569Z,97084.34
2023-11-30T19:20:38.626Z,97071.03
2023-11-30T19:23:05.284Z,97092.56
2023-11-30T19:25:31.894Z,97092.97
2023-11-30T19:27:58.603Z,97095.47
2023-11-30T19:30:25.394Z,97094.66
2023-11-30T19:32:52.789Z,97093.97
2023-11-30T19:35:19.969Z,97081.88
2023-11-30T19:37:46.656Z,97074.31
2023-11-30T19:40:13.565Z,97084.25
2023-11-30T19:42:40.743Z,97076.09
2023-11-30T19:45:08.146Z,97068.34
2023-11-30T19:47:35.072Z,97072.25
2023-11-30T19:50:01.766Z,97074.59
2023-11-30T19:52:28.736Z,97075.63
2023-11-30T19:54:55.428Z,97089.59
2023-11-30T19:57:22.231Z,97085.31
2023-11-30T19:59:49.101Z,97061.56
2023-11-30T20:02:15.859Z,97057.53
2023-11-30T20:04:42.692Z,97052.16
2023-11-30T20:07:09.456Z,97054.97
2023-11-30T20:09:36.355Z,97052.25
2023-11-30T20:12:03.212Z,97037.25
2023-11-30T20:14:29.754Z,97043.84
2023-11-30T20:16:56.603Z,97047.88
2023-11-30T20:19:24.013Z,97050.50
2023-11-30T20:21:50.537Z,97058.47
2023-11-30T20:24:17.196Z,97057.78
2023-11-30T20:26:46.785Z,97045.78
2023-11-30T20:29:13.651Z,97063.34
2023-11-30T20:31:40.336Z,97066.16
2023-11-30T20:34:07.116Z,97052.22
2023-11-30T20:36:33.996Z,97050.38
2023-11-30T20:39:00.710Z,97050.56
2023-11-30T20:41:27.374Z,97058.84
2023-11-30T20:43:57.351Z,97042.03
2023-11-30T20:46:23.995Z,97066.50
2023-11-30T20:48:50.759Z,97067.66
2023-11-30T20:51:20.199Z,97054.88
2023-11-30T20:53:46.981Z,97047.72
2023-11-30T20:56:14.453Z,97059.25
2023-11-30T20:58:44.495Z,97054.88
2023-11-30T21:01:11.540Z,97063.34
2023-11-30T21:03:38.947Z,97061.91
2023-11-30T21:06:06.451Z,97047.88
2023-11-30T21:08:34.092Z,97047.88
2023-11-30T21:11:03.973Z,97063.63
2023-11-30T21:13:32.638Z,97056.19
2023-11-30T21:15:59.505Z,97035.59
2023-11-30T21:18:26.311Z,97045.88
2023-11-30T21:20:52.934Z,97044.31
2023-11-30T21:23:19.520Z,97045.38
2023-11-30T21:25:46.250Z,97043.66
2023-11-30T21:28:12.916Z,97045.22
2023-11-30T21:30:41.264Z,97042.88
2023-11-30T21:33:09.040Z,97052.13
2023-11-30T21:35:35.674Z,97051.47
2023-11-30T21:38:02.898Z,97067.63
2023-11-30T21:40:31.222Z,97069.66
2023-11-30T21:42:57.896Z,97061.22
2023-11-30T21:45:24.729Z,97060.16
2023-11-30T21:47:51.799Z,97060.00
2023-11-30T21:50:22.853Z,97068.59
2023-11-30T21:52:50.634Z,97058.91
2023-11-30T21:55:18.458Z,97049.56
2023-11-30T21:57:48.999Z,97048.16
2023-11-30T22:00:17.131Z,97040.34
2023-11-30T22:02:45.806Z,97057.19
2023-11-30T22:05:24.100Z,97053.75
2023-11-30T22:07:57.342Z,97047.66
2023-11-30T22:10:23.964Z,97057.81
2023-11-30T22:12:50.606Z,97043.16
2023-11-30T22:15:17.345Z,97054.69
2023-11-30T22:17:44.949Z,97074.34
2023-11-30T22:20:12.138Z,97043.47
2023-11-30T22:22:38.719Z,97038.63
2023-11-30T22:25:05.855Z,97034.38
2023-11-30T22:27:32.520Z,97030.31
2023-11-30T22:29:59.116Z,97039.34
2023-11-30T22:32:25.750Z,97030.59
2023-11-30T22:34:53.075Z,97029.66
2023-11-30T22:37:21.218Z,97018.44
2023-11-30T22:39:48.022Z,97014.53
2023-11-30T22:42:14.901Z,97026.88
2023-11-30T22:44:41.579Z,97029.34
2023-11-30T22:47:08.195Z,97032.31
2023-11-30T22:49:34.966Z,97026.53
2023-11-30T22:52:01.818Z,97030.00
2023-11-30T22:54:28.917Z,97030.19
2023-11-30T22:56:55.803Z,97013.16
2023-11-30T22:59:22.437Z,97036.91
2023-11-30T23:01:50.504Z,97030.97
2023-11-30T23:04:17.592Z,97021.78
2023-11-30T23:06:44.442Z,97020.38
2023-11-30T23:09:11.047Z,97015.09
2023-11-30T23:11:37.709Z,97032.25
2023-11-30T23:14:04.391Z,97016.94
2023-11-30T23:16:31.041Z,97016.94
2023-11-30T23:18:57.842Z,97043.47
2023-11-30T23:21:24.532Z,97021.34
2023-11-30T23:23:51.077Z,97015.13
2023-11-30T23:26:18.231Z,97020.78
2023-11-30T23:28:44.967Z,97018.28
2023-11-30T23:31:11.672Z,97023.28
2023-11-30T23:33:38.416Z,97029.19
2023-11-30T23:36:05.476Z,97021.97
2023-11-30T23:38:32.086Z,97023.91
2023-11-30T23:40:58.711Z,97029.84
2023-11-30T23:43:25.407Z,97026.06
2023-11-30T23:45:52.119Z,97021.41
2023-11-30T23:48:18.950Z,97025.16
2023-11-30T23:50:45.635Z,97039.38
2023-11-30T23:53:13.023Z,97021.75
2023-11-30T23:55:39.771Z,97022.19
2023-11-30T23:58:06.453Z,97025.00
